Terminal Aerodrome Forecast
Issued by NWS

Home | Current Version | Previous Version | Text Only | Print | Product List | Glossary On
Versions: 1 2 3 4 5 6 7 8 9 10 11 12 13 14
563
FTUS43 KLSX 252335
TAFUIN
TAF
KUIN 252335Z 2600/2624 20010KT P6SM SCT200
     FM260800 18008KT P6SM -SHRA BKN060
      TEMPO 2608/2612 TSRA BKN030CB
     FM261300 19008KT P6SM BKN040
     FM262200 16008KT P6SM SCT250=

USA.gov is the U.S. government's official web portal to all federal, state and local government web resources and services.